Gent, Belgium
Current Conditions -  °F | °C
As of 10:55 AM on Sunday 21 Dec 2014 (Local Time) from EHFS Reporting Station
Overcast Overcast  
Wind Chill: 37°   Ceiling: 4500
Heat Index: 45°   Visibility: 6mi
Dew Point: 41°   Wind: 20mph
Humidity: 87%   Direction: 220°SW
Pressure: 30.36"   Gusts: NA
Location:  51.08°N, 3.71°E
Report Text: EHFS 210955Z AUTO 22017KT 9999 FEW017/// OVC045/// 07/05 Q1028
Loading
Personal Weather Stations






























Interactive Weather Map New forecast layout! Learn more

10-Day Weather Forecast

Advertisements
Track Severe Weather on mobile